sensor_id;sensor_type;location;lat;lon;timestamp;temperature;humidity
23556;DHT22;11956;53.184;8.578;2023-04-25T00:01:36;7.60;99.90
23556;DHT22;11956;53.184;8.578;2023-04-25T00:04:38;7.60;99.90
23556;DHT22;11956;53.184;8.578;2023-04-25T00:07:39;7.60;99.90
23556;DHT22;11956;53.184;8.578;2023-04-25T00:10:42;7.60;99.90
23556;DHT22;11956;53.184;8.578;2023-04-25T00:13:43;7.70;99.90
23556;DHT22;11956;53.184;8.578;2023-04-25T00:16:44;7.70;99.90
23556;DHT22;11956;53.184;8.578;2023-04-25T00:19:45;7.70;99.90
23556;DHT22;11956;53.184;8.578;2023-04-25T00:22:46;7.60;99.90
23556;DHT22;11956;53.184;8.578;2023-04-25T00:25:49;7.70;99.90
23556;DHT22;11956;53.184;8.578;2023-04-25T00:28:50;7.70;99.90
23556;DHT22;11956;53.184;8.578;2023-04-25T00:31:51;7.70;99.90
23556;DHT22;11956;53.184;8.578;2023-04-25T00:34:52;7.60;99.90
23556;DHT22;11956;53.184;8.578;2023-04-25T00:37:54;7.50;99.90
23556;DHT22;11956;53.184;8.578;2023-04-25T00:40:55;7.50;99.90
23556;DHT22;11956;53.184;8.578;2023-04-25T00:43:57;7.50;99.90
23556;DHT22;11956;53.184;8.578;2023-04-25T00:47:01;7.50;99.90
23556;DHT22;11956;53.184;8.578;2023-04-25T00:50:03;7.60;99.90
23556;DHT22;11956;53.184;8.578;2023-04-25T00:53:04;7.60;99.90
23556;DHT22;11956;53.184;8.578;2023-04-25T00:56:05;7.60;99.90
23556;DHT22;11956;53.184;8.578;2023-04-25T00:59:06;7.60;99.90
23556;DHT22;11956;53.184;8.578;2023-04-25T01:02:07;7.60;99.90
23556;DHT22;11956;53.184;8.578;2023-04-25T01:05:09;7.60;99.90
23556;DHT22;11956;53.184;8.578;2023-04-25T01:08:10;7.50;99.90
23556;DHT22;11956;53.184;8.578;2023-04-25T01:11:12;7.40;99.90
23556;DHT22;11956;53.184;8.578;2023-04-25T01:14:12;7.40;99.90
23556;DHT22;11956;53.184;8.578;2023-04-25T01:17:13;7.30;99.90
23556;DHT22;11956;53.184;8.578;2023-04-25T01:20:15;7.20;99.90
23556;DHT22;11956;53.184;8.578;2023-04-25T01:23:18;7.20;99.90
23556;DHT22;11956;53.184;8.578;2023-04-25T01:26:21;7.10;99.90
23556;DHT22;11956;53.184;8.578;2023-04-25T01:29:23;7.00;99.90
23556;DHT22;11956;53.184;8.578;2023-04-25T01:32:25;6.90;99.90
23556;DHT22;11956;53.184;8.578;2023-04-25T01:35:27;6.90;99.90
23556;DHT22;11956;53.184;8.578;2023-04-25T01:38:28;6.80;99.90
23556;DHT22;11956;53.184;8.578;2023-04-25T01:41:29;6.80;99.90
23556;DHT22;11956;53.184;8.578;2023-04-25T01:44:30;6.70;99.90
23556;DHT22;11956;53.184;8.578;2023-04-25T01:47:31;6.70;99.90
23556;DHT22;11956;53.184;8.578;2023-04-25T01:50:33;6.70;99.90
23556;DHT22;11956;53.184;8.578;2023-04-25T01:53:34;6.70;99.90
23556;DHT22;11956;53.184;8.578;2023-04-25T01:56:37;6.70;99.90
23556;DHT22;11956;53.184;8.578;2023-04-25T01:59:42;6.70;99.90
23556;DHT22;11956;53.184;8.578;2023-04-25T02:02:58;6.70;99.90
23556;DHT22;11956;53.184;8.578;2023-04-25T02:06:04;6.60;99.90
23556;DHT22;11956;53.184;8.578;2023-04-25T02:09:07;6.50;99.90
23556;DHT22;11956;53.184;8.578;2023-04-25T02:12:09;6.50;99.90
23556;DHT22;11956;53.184;8.578;2023-04-25T02:15:33;6.40;99.90
23556;DHT22;11956;53.184;8.578;2023-04-25T02:18:44;6.40;99.90
23556;DHT22;11956;53.184;8.578;2023-04-25T02:21:45;6.40;99.90
23556;DHT22;11956;53.184;8.578;2023-04-25T02:24:46;6.30;99.90
23556;DHT22;11956;53.184;8.578;2023-04-25T02:27:48;6.30;99.90
23556;DHT22;11956;53.184;8.578;2023-04-25T02:30:49;6.20;99.90
23556;DHT22;11956;53.184;8.578;2023-04-25T02:33:51;6.20;99.90
23556;DHT22;11956;53.184;8.578;2023-04-25T02:36:52;6.20;99.90
23556;DHT22;11956;53.184;8.578;2023-04-25T02:39:53;6.20;99.90
23556;DHT22;11956;53.184;8.578;2023-04-25T02:42:53;6.20;99.90
23556;DHT22;11956;53.184;8.578;2023-04-25T02:45:54;6.20;99.90
23556;DHT22;11956;53.184;8.578;2023-04-25T02:48:55;6.10;99.90
23556;DHT22;11956;53.184;8.578;2023-04-25T02:51:56;6.10;99.90
23556;DHT22;11956;53.184;8.578;2023-04-25T02:54:57;6.20;99.90
23556;DHT22;11956;53.184;8.578;2023-04-25T02:57:59;6.20;99.90
23556;DHT22;11956;53.184;8.578;2023-04-25T03:01:27;6.20;99.90
23556;DHT22;11956;53.184;8.578;2023-04-25T03:04:28;6.20;99.90
23556;DHT22;11956;53.184;8.578;2023-04-25T03:07:29;6.20;99.90
23556;DHT22;11956;53.184;8.578;2023-04-25T03:10:30;6.20;99.90
23556;DHT22;11956;53.184;8.578;2023-04-25T03:13:35;6.20;99.90
23556;DHT22;11956;53.184;8.578;2023-04-25T03:16:36;6.30;99.90
23556;DHT22;11956;53.184;8.578;2023-04-25T03:19:37;6.40;99.90
23556;DHT22;11956;53.184;8.578;2023-04-25T03:22:38;6.40;99.90
23556;DHT22;11956;53.184;8.578;2023-04-25T03:25:39;6.40;99.90
23556;DHT22;11956;53.184;8.578;2023-04-25T03:28:40;6.50;99.90
23556;DHT22;11956;53.184;8.578;2023-04-25T03:31:41;6.50;99.90
23556;DHT22;11956;53.184;8.578;2023-04-25T03:34:43;6.50;99.90
23556;DHT22;11956;53.184;8.578;2023-04-25T03:37:44;6.50;99.90
23556;DHT22;11956;53.184;8.578;2023-04-25T03:40:54;6.50;99.90
23556;DHT22;11956;53.184;8.578;2023-04-25T03:44:18;6.50;99.90
23556;DHT22;11956;53.184;8.578;2023-04-25T03:47:19;6.40;99.90
23556;DHT22;11956;53.184;8.578;2023-04-25T03:50:22;6.40;99.90
23556;DHT22;11956;53.184;8.578;2023-04-25T03:53:23;6.40;99.90
23556;DHT22;11956;53.184;8.578;2023-04-25T03:56:42;6.40;99.90
23556;DHT22;11956;53.184;8.578;2023-04-25T03:59:52;6.30;99.90
23556;DHT22;11956;53.184;8.578;2023-04-25T04:02:53;6.30;99.90
23556;DHT22;11956;53.184;8.578;2023-04-25T04:05:54;6.40;99.90
23556;DHT22;11956;53.184;8.578;2023-04-25T04:08:55;6.30;99.90
23556;DHT22;11956;53.184;8.578;2023-04-25T04:11:58;6.30;99.90
23556;DHT22;11956;53.184;8.578;2023-04-25T04:14:59;6.40;99.90
23556;DHT22;11956;53.184;8.578;2023-04-25T04:18:00;6.40;99.90
23556;DHT22;11956;53.184;8.578;2023-04-25T04:21:03;6.50;99.90
23556;DHT22;11956;53.184;8.578;2023-04-25T04:24:07;6.50;99.90
23556;DHT22;11956;53.184;8.578;2023-04-25T04:27:22;6.50;99.90
23556;DHT22;11956;53.184;8.578;2023-04-25T04:30:44;6.50;99.90
23556;DHT22;11956;53.184;8.578;2023-04-25T04:33:46;6.40;99.90
23556;DHT22;11956;53.184;8.578;2023-04-25T04:36:49;6.40;99.90
23556;DHT22;11956;53.184;8.578;2023-04-25T04:39:50;6.40;99.90
23556;DHT22;11956;53.184;8.578;2023-04-25T04:43:04;6.40;99.90
23556;DHT22;11956;53.184;8.578;2023-04-25T04:46:27;6.50;99.90
23556;DHT22;11956;53.184;8.578;2023-04-25T04:49:51;6.50;99.90
23556;DHT22;11956;53.184;8.578;2023-04-25T04:53:04;6.50;99.90
23556;DHT22;11956;53.184;8.578;2023-04-25T04:56:31;6.50;99.90
23556;DHT22;11956;53.184;8.578;2023-04-25T04:59:52;6.60;99.90
23556;DHT22;11956;53.184;8.578;2023-04-25T05:03:15;6.60;99.90
23556;DHT22;11956;53.184;8.578;2023-04-25T05:06:39;6.60;99.90
23556;DHT22;11956;53.184;8.578;2023-04-25T05:09:57;6.70;99.90
23556;DHT22;11956;53.184;8.578;2023-04-25T05:13:24;6.90;99.90
23556;DHT22;11956;53.184;8.578;2023-04-25T05:16:43;6.90;99.90
23556;DHT22;11956;53.184;8.578;2023-04-25T05:20:06;7.00;99.90
23556;DHT22;11956;53.184;8.578;2023-04-25T05:23:25;7.10;99.90
23556;DHT22;11956;53.184;8.578;2023-04-25T05:26:33;7.10;99.90
23556;DHT22;11956;53.184;8.578;2023-04-25T05:29:57;7.20;99.90
23556;DHT22;11956;53.184;8.578;2023-04-25T05:33:07;7.20;99.90
23556;DHT22;11956;53.184;8.578;2023-04-25T05:36:08;7.20;99.90
23556;DHT22;11956;53.184;8.578;2023-04-25T05:39:09;7.10;99.90
23556;DHT22;11956;53.184;8.578;2023-04-25T05:42:29;7.20;99.90
23556;DHT22;11956;53.184;8.578;2023-04-25T05:45:50;7.20;99.90
23556;DHT22;11956;53.184;8.578;2023-04-25T05:49:23;7.80;99.90
23556;DHT22;11956;53.184;8.578;2023-04-25T05:52:30;9.40;99.90
23556;DHT22;11956;53.184;8.578;2023-04-25T05:55:43;11.00;99.90
23556;DHT22;11956;53.184;8.578;2023-04-25T05:58:55;12.20;99.90
23556;DHT22;11956;53.184;8.578;2023-04-25T06:01:56;12.80;99.90
23556;DHT22;11956;53.184;8.578;2023-04-25T06:04:57;14.00;99.90
23556;DHT22;11956;53.184;8.578;2023-04-25T06:07:58;15.10;99.90
23556;DHT22;11956;53.184;8.578;2023-04-25T06:10:59;15.40;99.90
23556;DHT22;11956;53.184;8.578;2023-04-25T06:14:00;14.70;99.90
23556;DHT22;11956;53.184;8.578;2023-04-25T06:17:02;13.00;99.90
23556;DHT22;11956;53.184;8.578;2023-04-25T06:20:07;11.10;99.90
23556;DHT22;11956;53.184;8.578;2023-04-25T06:23:09;10.60;99.90
23556;DHT22;11956;53.184;8.578;2023-04-25T06:26:26;10.50;99.90
23556;DHT22;11956;53.184;8.578;2023-04-25T06:29:27;10.10;99.90
23556;DHT22;11956;53.184;8.578;2023-04-25T06:32:29;10.30;99.90
23556;DHT22;11956;53.184;8.578;2023-04-25T06:35:33;9.60;99.90
23556;DHT22;11956;53.184;8.578;2023-04-25T06:38:36;9.20;99.90
23556;DHT22;11956;53.184;8.578;2023-04-25T06:41:37;9.00;99.90
23556;DHT22;11956;53.184;8.578;2023-04-25T06:44:41;8.80;99.90
23556;DHT22;11956;53.184;8.578;2023-04-25T06:47:43;8.50;99.90
23556;DHT22;11956;53.184;8.578;2023-04-25T06:50:44;8.40;99.90
23556;DHT22;11956;53.184;8.578;2023-04-25T06:53:46;8.20;99.90
23556;DHT22;11956;53.184;8.578;2023-04-25T06:56:58;8.40;99.90
23556;DHT22;11956;53.184;8.578;2023-04-25T07:00:02;8.70;99.90
23556;DHT22;11956;53.184;8.578;2023-04-25T07:03:06;8.90;99.90
23556;DHT22;11956;53.184;8.578;2023-04-25T07:06:07;8.90;99.90
23556;DHT22;11956;53.184;8.578;2023-04-25T07:09:09;9.20;99.90
23556;DHT22;11956;53.184;8.578;2023-04-25T07:12:14;9.90;99.90
23556;DHT22;11956;53.184;8.578;2023-04-25T07:15:15;11.90;99.90
23556;DHT22;11956;53.184;8.578;2023-04-25T07:18:18;14.20;99.90
23556;DHT22;11956;53.184;8.578;2023-04-25T07:21:20;15.40;98.50
23556;DHT22;11956;53.184;8.578;2023-04-25T07:24:23;16.40;95.80
23556;DHT22;11956;53.184;8.578;2023-04-25T07:27:26;16.70;93.70
23556;DHT22;11956;53.184;8.578;2023-04-25T07:30:36;17.10;93.60
23556;DHT22;11956;53.184;8.578;2023-04-25T07:33:38;16.70;93.20
23556;DHT22;11956;53.184;8.578;2023-04-25T07:36:39;16.00;93.30
23556;DHT22;11956;53.184;8.578;2023-04-25T07:39:41;15.20;94.30
23556;DHT22;11956;53.184;8.578;2023-04-25T07:42:42;14.90;95.60
23556;DHT22;11956;53.184;8.578;2023-04-25T07:45:45;14.50;95.60
23556;DHT22;11956;53.184;8.578;2023-04-25T07:48:47;13.90;97.30
23556;DHT22;11956;53.184;8.578;2023-04-25T07:51:48;12.70;99.00
23556;DHT22;11956;53.184;8.578;2023-04-25T07:54:52;11.50;99.90
23556;DHT22;11956;53.184;8.578;2023-04-25T07:58:00;11.10;99.90
23556;DHT22;11956;53.184;8.578;2023-04-25T08:01:03;10.40;99.90
23556;DHT22;11956;53.184;8.578;2023-04-25T08:04:25;9.80;99.90
23556;DHT22;11956;53.184;8.578;2023-04-25T08:07:38;9.10;99.90
23556;DHT22;11956;53.184;8.578;2023-04-25T08:10:41;9.20;99.90
23556;DHT22;11956;53.184;8.578;2023-04-25T08:13:43;9.20;99.90
23556;DHT22;11956;53.184;8.578;2023-04-25T08:16:44;9.20;99.90
23556;DHT22;11956;53.184;8.578;2023-04-25T08:19:45;9.30;99.90
23556;DHT22;11956;53.184;8.578;2023-04-25T08:22:56;9.40;99.90
23556;DHT22;11956;53.184;8.578;2023-04-25T08:26:04;9.60;99.90
23556;DHT22;11956;53.184;8.578;2023-04-25T08:29:08;9.90;99.90
23556;DHT22;11956;53.184;8.578;2023-04-25T08:32:13;10.30;99.90
23556;DHT22;11956;53.184;8.578;2023-04-25T08:35:22;10.60;99.90
23556;DHT22;11956;53.184;8.578;2023-04-25T08:38:24;11.30;99.90
23556;DHT22;11956;53.184;8.578;2023-04-25T08:41:26;11.20;99.90
23556;DHT22;11956;53.184;8.578;2023-04-25T08:44:27;12.20;99.90
23556;DHT22;11956;53.184;8.578;2023-04-25T08:47:30;13.30;99.90
23556;DHT22;11956;53.184;8.578;2023-04-25T08:50:34;16.00;97.40
23556;DHT22;11956;53.184;8.578;2023-04-25T08:53:37;18.90;91.30
23556;DHT22;11956;53.184;8.578;2023-04-25T08:56:48;21.00;83.70
23556;DHT22;11956;53.184;8.578;2023-04-25T08:59:50;18.10;89.20
23556;DHT22;11956;53.184;8.578;2023-04-25T09:02:52;14.90;94.40
23556;DHT22;11956;53.184;8.578;2023-04-25T09:05:55;14.20;96.80
23556;DHT22;11956;53.184;8.578;2023-04-25T09:09:04;14.80;96.30
23556;DHT22;11956;53.184;8.578;2023-04-25T09:12:06;14.70;96.20
23556;DHT22;11956;53.184;8.578;2023-04-25T09:15:08;12.80;99.90
23556;DHT22;11956;53.184;8.578;2023-04-25T09:18:34;11.10;99.90
23556;DHT22;11956;53.184;8.578;2023-04-25T09:21:35;9.80;99.90
23556;DHT22;11956;53.184;8.578;2023-04-25T09:24:38;9.30;99.90
23556;DHT22;11956;53.184;8.578;2023-04-25T09:27:52;10.30;99.90
23556;DHT22;11956;53.184;8.578;2023-04-25T09:31:02;10.70;99.90
23556;DHT22;11956;53.184;8.578;2023-04-25T09:34:12;13.00;99.90
23556;DHT22;11956;53.184;8.578;2023-04-25T09:40:58;16.20;99.90
23556;DHT22;11956;53.184;8.578;2023-04-25T09:44:13;17.90;95.80
23556;DHT22;11956;53.184;8.578;2023-04-25T09:47:16;17.60;92.40
23556;DHT22;11956;53.184;8.578;2023-04-25T09:50:19;17.50;93.40
23556;DHT22;11956;53.184;8.578;2023-04-25T09:53:25;17.20;92.00
23556;DHT22;11956;53.184;8.578;2023-04-25T09:56:42;15.40;93.80
23556;DHT22;11956;53.184;8.578;2023-04-25T09:59:49;14.00;95.10
23556;DHT22;11956;53.184;8.578;2023-04-25T10:02:51;13.50;96.80
23556;DHT22;11956;53.184;8.578;2023-04-25T10:06:19;13.50;96.50
23556;DHT22;11956;53.184;8.578;2023-04-25T10:09:26;12.90;96.00
23556;DHT22;11956;53.184;8.578;2023-04-25T10:12:28;12.40;97.60
23556;DHT22;11956;53.184;8.578;2023-04-25T10:15:31;12.60;99.60
23556;DHT22;11956;53.184;8.578;2023-04-25T10:18:33;12.80;99.90
23556;DHT22;11956;53.184;8.578;2023-04-25T10:21:35;12.90;99.90
23556;DHT22;11956;53.184;8.578;2023-04-25T10:24:40;12.80;99.90
23556;DHT22;11956;53.184;8.578;2023-04-25T10:27:41;13.10;99.90
23556;DHT22;11956;53.184;8.578;2023-04-25T10:31:01;13.40;99.90
23556;DHT22;11956;53.184;8.578;2023-04-25T10:34:04;13.60;99.90
23556;DHT22;11956;53.184;8.578;2023-04-25T10:37:09;14.80;98.90
23556;DHT22;11956;53.184;8.578;2023-04-25T10:40:11;15.40;96.90
23556;DHT22;11956;53.184;8.578;2023-04-25T10:46:33;14.80;97.40
23556;DHT22;11956;53.184;8.578;2023-04-25T10:49:45;14.70;98.30
23556;DHT22;11956;53.184;8.578;2023-04-25T10:52:51;15.20;98.40
23556;DHT22;11956;53.184;8.578;2023-04-25T10:55:53;14.70;97.10
23556;DHT22;11956;53.184;8.578;2023-04-25T10:59:14;14.00;98.60
23556;DHT22;11956;53.184;8.578;2023-04-25T11:02:16;13.30;99.90
23556;DHT22;11956;53.184;8.578;2023-04-25T11:05:31;12.70;99.90
23556;DHT22;11956;53.184;8.578;2023-04-25T11:09:00;12.30;99.90
23556;DHT22;11956;53.184;8.578;2023-04-25T11:12:02;11.50;99.90
23556;DHT22;11956;53.184;8.578;2023-04-25T11:15:04;10.60;99.90
23556;DHT22;11956;53.184;8.578;2023-04-25T11:18:06;9.80;99.90
23556;DHT22;11956;53.184;8.578;2023-04-25T11:21:07;9.50;99.90
23556;DHT22;11956;53.184;8.578;2023-04-25T11:24:08;9.60;99.90
23556;DHT22;11956;53.184;8.578;2023-04-25T11:27:09;9.60;99.90
23556;DHT22;11956;53.184;8.578;2023-04-25T11:30:14;10.10;99.90
23556;DHT22;11956;53.184;8.578;2023-04-25T11:33:22;10.20;99.90
23556;DHT22;11956;53.184;8.578;2023-04-25T11:36:24;10.50;99.90
23556;DHT22;11956;53.184;8.578;2023-04-25T11:39:26;10.60;99.90
23556;DHT22;11956;53.184;8.578;2023-04-25T11:42:28;11.00;99.90
23556;DHT22;11956;53.184;8.578;2023-04-25T11:45:29;11.50;99.90
23556;DHT22;11956;53.184;8.578;2023-04-25T11:48:40;10.10;99.90
23556;DHT22;11956;53.184;8.578;2023-04-25T11:51:46;9.10;99.90
23556;DHT22;11956;53.184;8.578;2023-04-25T11:54:47;8.20;99.90
23556;DHT22;11956;53.184;8.578;2023-04-25T11:57:49;7.80;99.90
23556;DHT22;11956;53.184;8.578;2023-04-25T12:00:53;7.90;99.90
23556;DHT22;11956;53.184;8.578;2023-04-25T12:03:54;8.30;99.90
23556;DHT22;11956;53.184;8.578;2023-04-25T12:06:55;8.80;99.90
23556;DHT22;11956;53.184;8.578;2023-04-25T12:09:56;9.00;99.90
23556;DHT22;11956;53.184;8.578;2023-04-25T12:12:57;9.30;99.90
23556;DHT22;11956;53.184;8.578;2023-04-25T12:16:00;9.70;99.90
23556;DHT22;11956;53.184;8.578;2023-04-25T12:19:01;9.90;99.90
23556;DHT22;11956;53.184;8.578;2023-04-25T12:22:03;9.90;99.90
23556;DHT22;11956;53.184;8.578;2023-04-25T12:25:08;10.10;99.90
23556;DHT22;11956;53.184;8.578;2023-04-25T12:31:20;10.60;99.90
23556;DHT22;11956;53.184;8.578;2023-04-25T12:34:22;10.70;99.90
23556;DHT22;11956;53.184;8.578;2023-04-25T12:37:23;10.80;99.90
23556;DHT22;11956;53.184;8.578;2023-04-25T12:40:24;10.90;99.90
23556;DHT22;11956;53.184;8.578;2023-04-25T12:43:25;10.60;99.90
23556;DHT22;11956;53.184;8.578;2023-04-25T12:46:26;10.00;99.90
23556;DHT22;11956;53.184;8.578;2023-04-25T12:49:27;8.70;99.90
23556;DHT22;11956;53.184;8.578;2023-04-25T12:52:28;7.90;99.90
23556;DHT22;11956;53.184;8.578;2023-04-25T12:55:29;7.90;99.90
23556;DHT22;11956;53.184;8.578;2023-04-25T12:58:30;8.30;99.90
23556;DHT22;11956;53.184;8.578;2023-04-25T13:01:31;9.00;99.90
23556;DHT22;11956;53.184;8.578;2023-04-25T13:04:32;9.70;99.90
23556;DHT22;11956;53.184;8.578;2023-04-25T13:07:33;10.10;99.90
23556;DHT22;11956;53.184;8.578;2023-04-25T13:10:34;10.50;99.90
23556;DHT22;11956;53.184;8.578;2023-04-25T13:13:37;10.90;99.90
23556;DHT22;11956;53.184;8.578;2023-04-25T13:16:39;11.00;99.90
23556;DHT22;11956;53.184;8.578;2023-04-25T13:19:41;10.70;99.90
23556;DHT22;11956;53.184;8.578;2023-04-25T13:22:42;10.50;99.90
23556;DHT22;11956;53.184;8.578;2023-04-25T13:25:43;10.50;99.90
23556;DHT22;11956;53.184;8.578;2023-04-25T13:28:44;10.50;99.90
23556;DHT22;11956;53.184;8.578;2023-04-25T13:31:45;10.70;99.90
23556;DHT22;11956;53.184;8.578;2023-04-25T13:34:46;11.00;99.90
23556;DHT22;11956;53.184;8.578;2023-04-25T13:37:47;10.90;99.90
23556;DHT22;11956;53.184;8.578;2023-04-25T13:40:49;10.30;99.90
23556;DHT22;11956;53.184;8.578;2023-04-25T13:43:50;10.10;99.90
23556;DHT22;11956;53.184;8.578;2023-04-25T13:46:51;10.10;99.90
23556;DHT22;11956;53.184;8.578;2023-04-25T13:49:52;10.10;99.90
23556;DHT22;11956;53.184;8.578;2023-04-25T13:52:53;10.00;99.90
23556;DHT22;11956;53.184;8.578;2023-04-25T13:55:54;9.80;99.90
23556;DHT22;11956;53.184;8.578;2023-04-25T13:58:55;9.70;99.90
23556;DHT22;11956;53.184;8.578;2023-04-25T14:01:57;9.70;99.90
23556;DHT22;11956;53.184;8.578;2023-04-25T14:04:58;9.90;99.90
23556;DHT22;11956;53.184;8.578;2023-04-25T14:07:59;10.00;99.90
23556;DHT22;11956;53.184;8.578;2023-04-25T14:11:01;10.00;99.90
23556;DHT22;11956;53.184;8.578;2023-04-25T14:14:02;9.80;99.90
23556;DHT22;11956;53.184;8.578;2023-04-25T14:17:03;9.60;99.90
23556;DHT22;11956;53.184;8.578;2023-04-25T14:20:04;9.20;99.90
23556;DHT22;11956;53.184;8.578;2023-04-25T14:23:06;9.00;99.90
23556;DHT22;11956;53.184;8.578;2023-04-25T14:26:07;8.80;99.90
23556;DHT22;11956;53.184;8.578;2023-04-25T14:29:12;9.00;99.90
23556;DHT22;11956;53.184;8.578;2023-04-25T14:32:13;9.10;99.90
23556;DHT22;11956;53.184;8.578;2023-04-25T14:35:14;9.20;99.90
23556;DHT22;11956;53.184;8.578;2023-04-25T14:38:15;9.40;99.90
23556;DHT22;11956;53.184;8.578;2023-04-25T14:41:16;9.60;99.90
23556;DHT22;11956;53.184;8.578;2023-04-25T14:44:17;9.80;99.90
23556;DHT22;11956;53.184;8.578;2023-04-25T14:47:18;10.00;99.90
23556;DHT22;11956;53.184;8.578;2023-04-25T14:50:19;10.00;99.90
23556;DHT22;11956;53.184;8.578;2023-04-25T14:53:20;10.10;99.90
23556;DHT22;11956;53.184;8.578;2023-04-25T14:56:21;10.20;99.90
23556;DHT22;11956;53.184;8.578;2023-04-25T14:59:22;10.20;99.90
23556;DHT22;11956;53.184;8.578;2023-04-25T15:02:24;9.50;99.90
23556;DHT22;11956;53.184;8.578;2023-04-25T15:05:25;9.00;99.90
23556;DHT22;11956;53.184;8.578;2023-04-25T15:08:26;8.80;99.90
23556;DHT22;11956;53.184;8.578;2023-04-25T15:11:27;9.10;99.90
23556;DHT22;11956;53.184;8.578;2023-04-25T15:14:28;9.30;99.90
23556;DHT22;11956;53.184;8.578;2023-04-25T15:17:29;9.50;99.90
23556;DHT22;11956;53.184;8.578;2023-04-25T15:20:31;9.60;99.90
23556;DHT22;11956;53.184;8.578;2023-04-25T15:23:32;9.40;99.90
23556;DHT22;11956;53.184;8.578;2023-04-25T15:26:33;9.30;99.90
23556;DHT22;11956;53.184;8.578;2023-04-25T15:29:34;9.40;99.90
23556;DHT22;11956;53.184;8.578;2023-04-25T15:32:36;9.30;99.90
23556;DHT22;11956;53.184;8.578;2023-04-25T15:35:37;9.30;99.90
23556;DHT22;11956;53.184;8.578;2023-04-25T15:38:39;9.40;99.90
23556;DHT22;11956;53.184;8.578;2023-04-25T15:41:40;9.50;99.90
23556;DHT22;11956;53.184;8.578;2023-04-25T15:44:41;9.80;99.90
23556;DHT22;11956;53.184;8.578;2023-04-25T15:47:43;10.20;99.90
23556;DHT22;11956;53.184;8.578;2023-04-25T15:50:44;10.40;99.90
23556;DHT22;11956;53.184;8.578;2023-04-25T15:53:45;10.10;99.90
23556;DHT22;11956;53.184;8.578;2023-04-25T15:56:46;10.00;99.90
23556;DHT22;11956;53.184;8.578;2023-04-25T15:59:48;9.90;99.90
23556;DHT22;11956;53.184;8.578;2023-04-25T16:02:49;9.70;99.90
23556;DHT22;11956;53.184;8.578;2023-04-25T16:05:50;9.70;99.90
23556;DHT22;11956;53.184;8.578;2023-04-25T16:08:52;9.70;99.90
23556;DHT22;11956;53.184;8.578;2023-04-25T16:11:54;9.60;99.90
23556;DHT22;11956;53.184;8.578;2023-04-25T16:14:55;9.30;99.90
23556;DHT22;11956;53.184;8.578;2023-04-25T16:17:57;9.20;99.90
23556;DHT22;11956;53.184;8.578;2023-04-25T16:20:58;9.40;99.90
23556;DHT22;11956;53.184;8.578;2023-04-25T16:23:59;9.30;99.90
23556;DHT22;11956;53.184;8.578;2023-04-25T16:27:00;9.30;99.90
23556;DHT22;11956;53.184;8.578;2023-04-25T16:30:04;9.40;99.90
23556;DHT22;11956;53.184;8.578;2023-04-25T16:33:09;9.50;99.90
23556;DHT22;11956;53.184;8.578;2023-04-25T16:36:10;9.60;99.90
23556;DHT22;11956;53.184;8.578;2023-04-25T16:39:12;9.70;99.90
23556;DHT22;11956;53.184;8.578;2023-04-25T16:42:13;9.80;99.90
23556;DHT22;11956;53.184;8.578;2023-04-25T16:45:14;9.50;99.90
23556;DHT22;11956;53.184;8.578;2023-04-25T16:48:17;9.30;99.90
23556;DHT22;11956;53.184;8.578;2023-04-25T16:51:20;9.00;99.90
23556;DHT22;11956;53.184;8.578;2023-04-25T16:54:21;8.80;99.90
23556;DHT22;11956;53.184;8.578;2023-04-25T16:57:21;8.70;99.90
23556;DHT22;11956;53.184;8.578;2023-04-25T17:00:22;8.50;99.90
23556;DHT22;11956;53.184;8.578;2023-04-25T17:03:23;8.40;99.90
23556;DHT22;11956;53.184;8.578;2023-04-25T17:06:25;8.40;99.90
23556;DHT22;11956;53.184;8.578;2023-04-25T17:09:26;8.50;99.90
23556;DHT22;11956;53.184;8.578;2023-04-25T17:12:27;8.50;99.90
23556;DHT22;11956;53.184;8.578;2023-04-25T17:15:28;8.50;99.90
23556;DHT22;11956;53.184;8.578;2023-04-25T17:18:29;8.40;99.90
23556;DHT22;11956;53.184;8.578;2023-04-25T17:21:31;8.10;99.90
23556;DHT22;11956;53.184;8.578;2023-04-25T17:24:32;8.00;99.90
23556;DHT22;11956;53.184;8.578;2023-04-25T17:27:34;8.00;99.90
23556;DHT22;11956;53.184;8.578;2023-04-25T17:30:36;8.00;99.90
23556;DHT22;11956;53.184;8.578;2023-04-25T17:33:37;7.90;99.90
23556;DHT22;11956;53.184;8.578;2023-04-25T17:36:37;7.90;99.90
23556;DHT22;11956;53.184;8.578;2023-04-25T17:39:38;7.80;99.90
23556;DHT22;11956;53.184;8.578;2023-04-25T17:42:39;7.80;99.90
23556;DHT22;11956;53.184;8.578;2023-04-25T17:45:41;7.70;99.90
23556;DHT22;11956;53.184;8.578;2023-04-25T17:48:42;7.60;99.90
23556;DHT22;11956;53.184;8.578;2023-04-25T17:51:43;7.60;99.90
23556;DHT22;11956;53.184;8.578;2023-04-25T17:54:44;7.60;99.90
23556;DHT22;11956;53.184;8.578;2023-04-25T17:57:45;7.50;99.90
23556;DHT22;11956;53.184;8.578;2023-04-25T18:00:46;7.50;99.90
23556;DHT22;11956;53.184;8.578;2023-04-25T18:03:47;7.50;99.90
23556;DHT22;11956;53.184;8.578;2023-04-25T18:06:49;7.50;99.90
23556;DHT22;11956;53.184;8.578;2023-04-25T18:09:49;7.50;99.90
23556;DHT22;11956;53.184;8.578;2023-04-25T18:12:50;7.40;99.90
23556;DHT22;11956;53.184;8.578;2023-04-25T18:15:51;7.40;99.90
23556;DHT22;11956;53.184;8.578;2023-04-25T18:18:52;7.40;99.90
23556;DHT22;11956;53.184;8.578;2023-04-25T18:21:54;7.30;99.90
23556;DHT22;11956;53.184;8.578;2023-04-25T18:24:55;7.10;99.90
23556;DHT22;11956;53.184;8.578;2023-04-25T18:27:56;7.00;99.90
23556;DHT22;11956;53.184;8.578;2023-04-25T18:30:59;7.00;99.90
23556;DHT22;11956;53.184;8.578;2023-04-25T18:33:59;6.90;99.90
23556;DHT22;11956;53.184;8.578;2023-04-25T18:37:00;6.90;99.90
23556;DHT22;11956;53.184;8.578;2023-04-25T18:40:01;6.80;99.90
23556;DHT22;11956;53.184;8.578;2023-04-25T18:43:05;6.70;99.90
23556;DHT22;11956;53.184;8.578;2023-04-25T18:46:06;6.70;99.90
23556;DHT22;11956;53.184;8.578;2023-04-25T18:49:07;6.70;99.90
23556;DHT22;11956;53.184;8.578;2023-04-25T18:52:09;6.60;99.90
23556;DHT22;11956;53.184;8.578;2023-04-25T18:55:11;6.50;99.90
23556;DHT22;11956;53.184;8.578;2023-04-25T18:58:12;6.50;99.90
23556;DHT22;11956;53.184;8.578;2023-04-25T19:01:13;6.50;99.90
23556;DHT22;11956;53.184;8.578;2023-04-25T19:04:14;6.50;99.90
23556;DHT22;11956;53.184;8.578;2023-04-25T19:07:15;6.40;99.90
23556;DHT22;11956;53.184;8.578;2023-04-25T19:10:16;6.40;99.90
23556;DHT22;11956;53.184;8.578;2023-04-25T19:13:17;6.30;99.90
23556;DHT22;11956;53.184;8.578;2023-04-25T19:16:18;6.30;99.90
23556;DHT22;11956;53.184;8.578;2023-04-25T19:19:21;6.30;99.90
23556;DHT22;11956;53.184;8.578;2023-04-25T19:22:22;6.20;99.90
23556;DHT22;11956;53.184;8.578;2023-04-25T19:25:23;6.20;99.90
23556;DHT22;11956;53.184;8.578;2023-04-25T19:28:25;6.20;99.90
23556;DHT22;11956;53.184;8.578;2023-04-25T19:31:26;6.10;99.90
23556;DHT22;11956;53.184;8.578;2023-04-25T19:34:27;6.10;99.90
23556;DHT22;11956;53.184;8.578;2023-04-25T19:37:28;6.00;99.90
23556;DHT22;11956;53.184;8.578;2023-04-25T19:40:29;6.00;99.90
23556;DHT22;11956;53.184;8.578;2023-04-25T19:43:30;6.00;99.90
23556;DHT22;11956;53.184;8.578;2023-04-25T19:46:31;6.00;99.90